createdAt,value
2023-04-16T00:00:34.187Z,36.55
2023-04-16T00:01:36.709Z,34.15
2023-04-16T00:02:39.455Z,40.30
2023-04-16T00:03:42.140Z,34.63
2023-04-16T00:04:45.028Z,32.85
2023-04-16T00:05:47.514Z,33.50
2023-04-16T00:06:50.051Z,39.35
2023-04-16T00:07:53.037Z,29.25
2023-04-16T00:08:55.450Z,35.63
2023-04-16T00:09:57.959Z,32.58
2023-04-16T00:11:00.595Z,38.20
2023-04-16T00:12:03.715Z,29.45
2023-04-16T00:13:06.120Z,31.65
2023-04-16T00:14:08.640Z,34.50
2023-04-16T00:15:11.287Z,35.65
2023-04-16T00:16:13.828Z,31.15
2023-04-16T00:17:16.320Z,29.65
2023-04-16T00:18:19.565Z,32.33
2023-04-16T00:19:22.200Z,34.50
2023-04-16T00:20:24.734Z,34.70
2023-04-16T00:21:27.246Z,30.13
2023-04-16T00:22:29.772Z,31.52
2023-04-16T00:23:32.527Z,30.55
2023-04-16T00:24:34.923Z,28.27
2023-04-16T00:25:37.326Z,30.10
2023-04-16T00:26:41.073Z,32.20
2023-04-16T00:27:43.564Z,34.78
2023-04-16T00:28:46.088Z,28.35
2023-04-16T00:29:48.622Z,31.90
2023-04-16T00:30:51.268Z,32.50
2023-04-16T00:31:53.889Z,29.17
2023-04-16T00:32:56.592Z,34.53
2023-04-16T00:33:59.535Z,30.38
2023-04-16T00:35:02.101Z,31.08
2023-04-16T00:36:05.050Z,30.15
2023-04-16T00:37:07.570Z,28.55
2023-04-16T00:38:10.097Z,32.72
2023-04-16T00:39:12.636Z,31.33
2023-04-16T00:40:15.156Z,30.88
2023-04-16T00:41:18.012Z,29.83
2023-04-16T00:42:20.535Z,32.55
2023-04-16T00:43:24.979Z,31.33
2023-04-16T00:44:27.738Z,29.13
2023-04-16T00:45:30.150Z,34.75
2023-04-16T00:46:33.096Z,33.25
2023-04-16T00:47:35.663Z,26.90
2023-04-16T00:48:39.987Z,31.50
2023-04-16T00:49:42.498Z,36.55
2023-04-16T00:50:45.027Z,31.92
2023-04-16T00:51:48.260Z,28.42
2023-04-16T00:52:51.029Z,29.27
2023-04-16T00:53:53.555Z,31.05
2023-04-16T00:54:56.538Z,31.90
2023-04-16T00:55:59.432Z,30.80
2023-04-16T00:57:02.674Z,32.53
2023-04-16T00:58:06.622Z,29.73
2023-04-16T00:59:10.309Z,30.88
2023-04-16T01:00:13.715Z,30.55
2023-04-16T01:01:16.448Z,30.00
2023-04-16T01:02:19.000Z,36.10
2023-04-16T01:03:21.671Z,26.90
2023-04-16T01:04:24.709Z,31.50
2023-04-16T01:05:27.268Z,32.95
2023-04-16T01:06:29.675Z,32.17
2023-04-16T01:07:32.332Z,34.53
2023-04-16T01:08:34.859Z,29.70
2023-04-16T01:09:37.838Z,34.13
2023-04-16T01:10:40.353Z,31.42
2023-04-16T01:11:42.884Z,35.58
2023-04-16T01:12:45.754Z,30.38
2023-04-16T01:13:48.281Z,32.30
2023-04-16T01:14:50.799Z,32.45
2023-04-16T01:15:53.353Z,33.30
2023-04-16T01:16:56.088Z,34.78
2023-04-16T01:17:58.667Z,31.35
2023-04-16T01:19:01.484Z,31.02
2023-04-16T01:20:04.122Z,37.67
2023-04-16T01:21:07.129Z,32.55
2023-04-16T01:22:09.554Z,30.10
2023-04-16T01:23:12.054Z,30.48
2023-04-16T01:24:14.451Z,30.65
2023-04-16T01:25:17.096Z,28.30
2023-04-16T01:26:20.207Z,33.20
2023-04-16T01:27:22.728Z,26.70
2023-04-16T01:28:25.258Z,36.97
2023-04-16T01:29:28.011Z,23.17
2023-04-16T01:30:32.817Z,35.08
2023-04-16T01:32:04.510Z,29.60
2023-04-16T01:33:11.332Z,33.05
2023-04-16T01:34:13.854Z,30.27
2023-04-16T01:35:18.208Z,36.13
2023-04-16T01:36:20.819Z,34.65
2023-04-16T01:37:23.334Z,29.10
2023-04-16T01:38:25.981Z,29.80
2023-04-16T01:39:28.495Z,28.80
2023-04-16T01:40:32.699Z,32.63
2023-04-16T01:41:36.300Z,32.35
2023-04-16T01:42:39.057Z,31.85
2023-04-16T01:43:42.659Z,29.92
2023-04-16T01:44:47.699Z,40.10
2023-04-16T01:45:50.461Z,33.38
2023-04-16T01:46:53.289Z,34.35
2023-04-16T01:47:57.234Z,30.83
2023-04-16T01:49:00.791Z,28.30
2023-04-16T01:50:05.711Z,35.15
2023-04-16T01:51:08.231Z,29.30
2023-04-16T01:52:10.747Z,31.48
2023-04-16T01:53:13.146Z,34.17
2023-04-16T01:54:15.794Z,34.10
2023-04-16T01:55:18.437Z,30.30
2023-04-16T01:56:21.071Z,30.60
2023-04-16T01:57:24.194Z,30.08
2023-04-16T01:58:30.437Z,30.33
2023-04-16T01:59:32.834Z,30.55
2023-04-16T02:00:35.504Z,32.42
2023-04-16T02:01:38.862Z,39.08
2023-04-16T02:02:41.654Z,29.33
2023-04-16T02:03:44.707Z,35.13
2023-04-16T02:04:47.365Z,28.80
2023-04-16T02:05:49.873Z,29.58
2023-04-16T02:06:52.397Z,27.15
2023-04-16T02:07:54.915Z,24.88
2023-04-16T02:08:57.444Z,32.65
2023-04-16T02:10:01.398Z,26.50
2023-04-16T02:11:04.034Z,33.80
2023-04-16T02:12:07.524Z,34.65
2023-04-16T02:13:10.038Z,31.50
2023-04-16T02:14:12.917Z,33.13
2023-04-16T02:15:16.518Z,32.20
2023-04-16T02:16:19.570Z,30.77
2023-04-16T02:17:32.661Z,33.63
2023-04-16T02:18:44.658Z,32.35
2023-04-16T02:19:49.761Z,27.30
2023-04-16T02:20:52.412Z,28.25
2023-04-16T02:21:55.169Z,29.63
2023-04-16T02:22:57.678Z,27.95
2023-04-16T02:24:00.563Z,28.45
2023-04-16T02:25:06.084Z,29.83
2023-04-16T02:26:08.718Z,27.52
2023-04-16T02:27:11.395Z,23.50
2023-04-16T02:28:18.081Z,29.83
2023-04-16T02:29:22.768Z,31.95
2023-04-16T02:30:35.367Z,22.45
2023-04-16T02:31:39.105Z,28.42
2023-04-16T02:32:42.486Z,30.45
2023-04-16T02:33:45.210Z,31.67
2023-04-16T02:34:47.725Z,26.92
2023-04-16T02:35:51.698Z,27.20
2023-04-16T02:36:55.187Z,31.73
2023-04-16T02:37:58.050Z,31.95
2023-04-16T02:39:00.567Z,26.75
2023-04-16T02:40:03.096Z,29.23
2023-04-16T02:41:05.610Z,31.30
2023-04-16T02:42:09.573Z,26.50
2023-04-16T02:43:12.218Z,34.22
2023-04-16T02:44:14.770Z,27.05
2023-04-16T02:45:17.258Z,30.00
2023-04-16T02:46:19.855Z,32.47
2023-04-16T02:47:22.454Z,27.45
2023-04-16T02:48:25.419Z,28.90
2023-04-16T02:49:27.825Z,29.45
2023-04-16T02:50:30.465Z,29.42
2023-04-16T02:51:38.263Z,26.73
2023-04-16T02:52:40.899Z,22.70
2023-04-16T02:53:46.299Z,25.33
2023-04-16T02:54:49.542Z,23.67
2023-04-16T02:55:53.858Z,26.17
2023-04-16T02:56:56.982Z,26.40
2023-04-16T02:57:59.389Z,27.80
2023-04-16T02:59:02.079Z,29.33
2023-04-16T03:00:05.403Z,25.52
2023-04-16T03:01:07.821Z,25.15
2023-04-16T03:02:10.342Z,30.27
2023-04-16T03:03:13.106Z,32.92
2023-04-16T03:04:16.042Z,24.60
2023-04-16T03:05:18.707Z,26.58
2023-04-16T03:06:22.320Z,23.65
2023-04-16T03:07:24.839Z,28.88
2023-04-16T03:08:27.711Z,35.63
2023-04-16T03:09:30.351Z,29.77
2023-04-16T03:10:33.112Z,27.88
2023-04-16T03:11:35.872Z,26.40
2023-04-16T03:12:39.236Z,27.75
2023-04-16T03:13:42.595Z,29.95
2023-04-16T03:14:46.242Z,25.85
2023-04-16T03:15:50.208Z,30.92
2023-04-16T03:16:52.917Z,26.75
2023-04-16T03:17:55.866Z,28.10
2023-04-16T03:18:58.437Z,25.73
2023-04-16T03:20:01.084Z,32.00
2023-04-16T03:21:03.719Z,33.50
2023-04-16T03:22:06.371Z,24.98
2023-04-16T03:23:09.598Z,29.42
2023-04-16T03:24:12.004Z,31.65
2023-04-16T03:25:14.766Z,28.27
2023-04-16T03:26:17.284Z,31.48
2023-04-16T03:27:20.281Z,31.85
2023-04-16T03:28:24.249Z,33.88
2023-04-16T03:29:27.363Z,32.58
2023-04-16T03:30:30.852Z,28.77
2023-04-16T03:31:33.391Z,27.80
2023-04-16T03:32:36.516Z,30.38
2023-04-16T03:33:39.727Z,29.17
2023-04-16T03:34:42.136Z,35.72
2023-04-16T03:35:44.648Z,29.35
2023-04-16T03:36:47.173Z,37.67
2023-04-16T03:37:50.651Z,36.53
2023-04-16T03:38:53.897Z,26.95
2023-04-16T03:39:56.424Z,31.15
2023-04-16T03:40:58.817Z,39.58
2023-04-16T03:42:02.553Z,29.17
2023-04-16T03:43:04.934Z,31.83
2023-04-16T03:44:08.552Z,26.70
2023-04-16T03:45:11.294Z,24.63
2023-04-16T03:46:14.676Z,32.72
2023-04-16T03:47:17.233Z,29.77
2023-04-16T03:48:20.925Z,29.83
2023-04-16T03:49:23.418Z,32.10
2023-04-16T03:50:26.667Z,29.08
2023-04-16T03:51:29.567Z,29.63
2023-04-16T03:52:32.182Z,28.08
2023-04-16T03:53:34.615Z,29.00
2023-04-16T03:54:37.106Z,34.05
2023-04-16T03:55:54.386Z,30.98
2023-04-16T03:56:58.001Z,28.15
2023-04-16T03:58:03.269Z,28.77
2023-04-16T03:59:07.460Z,27.45
2023-04-16T04:00:10.352Z,27.58
2023-04-16T04:01:32.753Z,31.70
2023-04-16T04:02:35.798Z,30.58
2023-04-16T04:03:38.467Z,33.70
2023-04-16T04:04:41.263Z,29.60
2023-04-16T04:05:44.911Z,34.72
2023-04-16T04:06:50.076Z,27.80
2023-04-16T04:07:53.316Z,26.02
2023-04-16T04:08:55.832Z,28.85
2023-04-16T04:09:58.356Z,32.88
2023-04-16T04:11:01.116Z,31.65
2023-04-16T04:12:03.899Z,30.75
2023-04-16T04:13:07.736Z,27.65
2023-04-16T04:14:10.955Z,28.77
2023-04-16T04:15:13.479Z,29.65
2023-04-16T04:16:18.098Z,31.50
2023-04-16T04:17:20.721Z,31.67
2023-04-16T04:18:23.197Z,27.48
2023-04-16T04:19:25.721Z,29.13
2023-04-16T04:20:28.248Z,28.63
2023-04-16T04:21:31.846Z,31.33
2023-04-16T04:22:34.367Z,25.80
2023-04-16T04:23:37.028Z,30.25
2023-04-16T04:24:40.966Z,27.48
2023-04-16T04:25:43.376Z,28.50
2023-04-16T04:26:45.771Z,31.15
2023-04-16T04:27:49.377Z,28.67
2023-04-16T04:28:51.890Z,28.73
2023-04-16T04:29:54.646Z,28.75
2023-04-16T04:30:58.974Z,23.98
2023-04-16T04:32:01.604Z,26.25
2023-04-16T04:33:04.295Z,32.60
2023-04-16T04:34:06.771Z,32.28
2023-04-16T04:35:09.907Z,30.60
2023-04-16T04:36:12.420Z,26.33
2023-04-16T04:37:14.930Z,33.30
2023-04-16T04:38:20.219Z,29.17
2023-04-16T04:39:23.813Z,31.23
2023-04-16T04:40:26.455Z,32.47
2023-04-16T04:41:28.973Z,30.60
2023-04-16T04:42:31.493Z,27.80
2023-04-16T04:43:33.903Z,29.83
2023-04-16T04:44:36.414Z,35.60
2023-04-16T04:45:38.832Z,33.08
2023-04-16T04:46:41.342Z,26.67
2023-04-16T04:47:43.892Z,32.05
2023-04-16T04:48:46.540Z,34.25
2023-04-16T04:49:51.540Z,29.92
2023-04-16T04:50:55.855Z,31.13
2023-04-16T04:51:58.378Z,27.38
2023-04-16T04:53:01.029Z,30.35
2023-04-16T04:54:03.539Z,29.08
2023-04-16T04:55:06.186Z,32.08
2023-04-16T04:56:12.183Z,31.70
2023-04-16T04:57:16.520Z,26.02
2023-04-16T04:58:19.504Z,26.35
2023-04-16T04:59:22.042Z,27.90
2023-04-16T05:00:25.029Z,32.08
2023-04-16T05:01:30.199Z,26.23
2023-04-16T05:02:32.872Z,32.72
2023-04-16T05:03:35.649Z,28.08
2023-04-16T05:04:38.289Z,26.05
2023-04-16T05:05:41.611Z,26.50
2023-04-16T05:06:44.706Z,26.67
2023-04-16T05:07:47.120Z,31.70
2023-04-16T05:08:49.633Z,23.77
2023-04-16T05:09:52.163Z,25.48
2023-04-16T05:10:54.569Z,26.27
2023-04-16T05:11:57.688Z,28.38
2023-04-16T05:13:00.244Z,26.95
2023-04-16T05:14:02.715Z,23.58
2023-04-16T05:15:05.480Z,28.77
2023-04-16T05:16:08.117Z,30.08
2023-04-16T05:17:11.029Z,25.08
2023-04-16T05:18:13.518Z,28.23
2023-04-16T05:19:17.238Z,26.20
2023-04-16T05:20:19.760Z,29.02
2023-04-16T05:21:22.641Z,25.27
2023-04-16T05:22:25.292Z,29.05
2023-04-16T05:23:28.045Z,24.42
2023-04-16T05:24:30.565Z,27.00
2023-04-16T05:25:33.100Z,27.02
2023-04-16T05:26:35.726Z,24.95
2023-04-16T05:27:38.550Z,25.80
2023-04-16T05:28:41.125Z,26.80
2023-04-16T05:29:43.528Z,23.73
2023-04-16T05:30:46.078Z,24.42
2023-04-16T05:31:48.569Z,26.42
2023-04-16T05:32:51.737Z,24.98
2023-04-16T05:33:54.218Z,27.48
2023-04-16T05:34:56.734Z,21.50
2023-04-16T05:35:59.248Z,22.52
2023-04-16T05:37:01.790Z,24.98
2023-04-16T05:38:07.295Z,21.80
2023-04-16T05:39:10.920Z,25.98
2023-04-16T05:40:14.383Z,25.55
2023-04-16T05:41:16.900Z,20.67
2023-04-16T05:42:19.422Z,21.67
2023-04-16T05:43:21.929Z,24.88
2023-04-16T05:44:24.333Z,23.40
2023-04-16T05:45:28.029Z,24.30
2023-04-16T05:46:31.481Z,22.77
2023-04-16T05:47:34.008Z,21.00
2023-04-16T05:48:36.361Z,24.02
2023-04-16T05:49:38.860Z,23.17
2023-04-16T05:50:41.508Z,25.33
2023-04-16T05:51:44.017Z,20.98
2023-04-16T05:52:46.541Z,19.40
2023-04-16T05:53:48.939Z,19.90
2023-04-16T05:54:51.460Z,20.55
2023-04-16T05:55:53.979Z,22.83
2023-04-16T05:56:56.624Z,23.10
2023-04-16T05:57:59.387Z,19.00
2023-04-16T05:59:01.909Z,18.50
2023-04-16T06:00:04.903Z,21.63
2023-04-16T06:01:14.501Z,18.67
2023-04-16T06:02:17.078Z,17.85
2023-04-16T06:03:19.719Z,21.40
2023-04-16T06:04:22.313Z,19.08
2023-04-16T06:05:26.932Z,20.30
2023-04-16T06:06:29.505Z,18.80
2023-04-16T06:07:32.026Z,20.35
2023-04-16T06:08:34.435Z,20.98
2023-04-16T06:09:37.074Z,18.75
2023-04-16T06:10:39.597Z,19.40
2023-04-16T06:11:42.247Z,19.80
2023-04-16T06:12:44.990Z,18.35
2023-04-16T06:13:47.322Z,18.05
2023-04-16T06:14:50.536Z,21.15
2023-04-16T06:15:53.165Z,19.98
2023-04-16T06:16:56.519Z,20.00
2023-04-16T06:18:00.772Z,21.55
2023-04-16T06:19:03.590Z,16.08
2023-04-16T06:20:06.838Z,20.58
2023-04-16T06:21:09.359Z,22.17
2023-04-16T06:22:11.995Z,20.38
2023-04-16T06:23:14.529Z,16.50
2023-04-16T06:24:18.601Z,18.30
2023-04-16T06:25:21.121Z,15.32
2023-04-16T06:26:23.639Z,19.85
2023-04-16T06:27:26.171Z,16.30
2023-04-16T06:28:28.681Z,17.60
2023-04-16T06:29:40.474Z,18.48
2023-04-16T06:30:44.746Z,18.65
2023-04-16T06:31:48.492Z,15.57
2023-04-16T06:32:51.358Z,19.70
2023-04-16T06:33:53.895Z,18.48
2023-04-16T06:50:26.745Z,18.00
2023-04-16T06:51:29.083Z,14.93
2023-04-16T06:52:31.317Z,19.42
2023-04-16T06:53:33.593Z,17.38
2023-04-16T06:54:36.217Z,14.70
2023-04-16T06:55:38.353Z,16.70
2023-04-16T06:56:40.672Z,17.23
2023-04-16T06:57:42.862Z,18.35
2023-04-16T06:58:44.995Z,17.55
2023-04-16T06:59:47.157Z,17.85
2023-04-16T07:00:49.352Z,22.20
2023-04-16T07:01:53.006Z,20.13
2023-04-16T07:02:57.093Z,21.73
2023-04-16T07:04:00.832Z,18.25
2023-04-16T07:05:03.312Z,14.50
2023-04-16T07:06:05.554Z,16.70
2023-04-16T07:07:08.649Z,17.45
2023-04-16T07:08:11.257Z,16.17
2023-04-16T07:09:13.416Z,16.77
2023-04-16T07:10:16.785Z,17.17
2023-04-16T07:11:19.444Z,14.10
2023-04-16T07:12:22.761Z,17.85
2023-04-16T07:13:25.263Z,18.40
2023-04-16T07:14:27.549Z,15.68
2023-04-16T07:15:29.685Z,19.25
2023-04-16T07:16:31.889Z,14.73
2023-04-16T07:17:34.085Z,16.30
2023-04-16T07:18:36.474Z,16.52
2023-04-16T07:19:38.705Z,17.30
2023-04-16T07:20:40.834Z,14.52
2023-04-16T07:21:43.775Z,19.88
2023-04-16T07:22:46.129Z,17.10
2023-04-16T07:23:48.338Z,18.88
2023-04-16T07:24:50.669Z,19.63
2023-04-16T07:25:52.802Z,14.23
2023-04-16T07:26:55.037Z,18.55
2023-04-16T07:27:57.223Z,27.30
2023-04-16T07:28:59.401Z,22.92
2023-04-16T07:30:01.731Z,16.63
2023-04-16T07:31:04.218Z,19.60
2023-04-16T07:32:06.640Z,17.48
2023-04-16T07:33:09.118Z,16.08
2023-04-16T07:34:11.456Z,16.55
2023-04-16T07:35:13.610Z,15.13
2023-04-16T07:36:15.884Z,16.00
2023-04-16T07:37:18.353Z,18.77
2023-04-16T07:38:20.680Z,20.48
2023-04-16T07:39:22.844Z,15.32
2023-04-16T07:40:25.203Z,18.35
2023-04-16T07:41:29.447Z,18.27
2023-04-16T07:42:31.637Z,17.70
2023-04-16T07:43:33.815Z,16.63
2023-04-16T07:44:36.050Z,27.73
2023-04-16T07:45:38.248Z,15.32
2023-04-16T07:46:46.824Z,17.58
2023-04-16T07:47:49.794Z,14.95
2023-04-16T07:48:52.022Z,17.63
2023-04-16T07:49:54.290Z,14.70
2023-04-16T07:50:56.982Z,16.98
2023-04-16T07:51:59.168Z,17.60
2023-04-16T07:53:01.484Z,16.38
2023-04-16T07:54:03.759Z,16.80
2023-04-16T07:55:06.319Z,15.60
2023-04-16T07:56:08.893Z,17.10
2023-04-16T07:57:12.229Z,18.02
2023-04-16T07:58:14.382Z,17.60
2023-04-16T07:59:22.938Z,14.80
2023-04-16T08:00:26.286Z,15.75
2023-04-16T08:01:28.488Z,14.10
2023-04-16T08:02:31.207Z,17.08
2023-04-16T08:03:33.528Z,17.80
2023-04-16T08:04:36.180Z,16.00
2023-04-16T08:05:38.650Z,15.38
2023-04-16T08:06:40.922Z,19.40
2023-04-16T08:07:43.158Z,15.93
2023-04-16T08:08:45.297Z,16.13
2023-04-16T08:09:56.549Z,15.80
2023-04-16T08:10:59.073Z,15.50
2023-04-16T08:12:01.860Z,17.65
2023-04-16T08:13:04.058Z,16.73
2023-04-16T08:14:06.300Z,16.65
2023-04-16T08:15:08.876Z,16.95
2023-04-16T08:16:11.098Z,14.77
2023-04-16T08:17:14.248Z,16.75
2023-04-16T08:18:16.468Z,14.55
2023-04-16T08:19:18.898Z,17.13
2023-04-16T08:20:21.008Z,17.80
2023-04-16T08:21:23.186Z,16.10
2023-04-16T08:22:26.338Z,20.08
2023-04-16T08:23:28.537Z,19.65
2023-04-16T08:24:30.827Z,15.30
2023-04-16T08:25:33.005Z,14.18
2023-04-16T08:26:35.370Z,15.75
2023-04-16T08:27:37.687Z,15.35
2023-04-16T08:28:39.827Z,13.00
2023-04-16T08:29:41.997Z,16.70
2023-04-16T08:30:45.682Z,16.45
2023-04-16T08:31:47.996Z,13.45
2023-04-16T08:32:50.616Z,14.05
2023-04-16T08:33:52.870Z,13.07
2023-04-16T08:34:55.055Z,16.48
2023-04-16T08:35:57.200Z,13.60
2023-04-16T08:36:59.352Z,15.85
2023-04-16T08:38:03.566Z,16.60
2023-04-16T08:39:05.714Z,19.55
2023-04-16T08:40:08.700Z,17.40
2023-04-16T08:41:13.120Z,20.17
2023-04-16T08:42:32.045Z,14.57
2023-04-16T08:43:37.673Z,22.00
2023-04-16T08:44:48.911Z,20.10
2023-04-16T08:45:56.287Z,14.43
2023-04-16T08:46:59.238Z,17.60
2023-04-16T08:48:05.054Z,17.23
2023-04-16T08:49:08.930Z,17.42
2023-04-16T08:50:12.078Z,16.75
2023-04-16T08:51:16.011Z,14.55
2023-04-16T08:52:23.891Z,16.25
2023-04-16T08:53:33.173Z,15.88
2023-04-16T08:54:44.442Z,18.20
2023-04-16T08:55:50.448Z,16.67
2023-04-16T08:56:53.208Z,14.77
2023-04-16T08:57:59.496Z,16.98
2023-04-16T08:59:05.236Z,19.35
2023-04-16T09:00:08.997Z,14.90
2023-04-16T09:01:11.543Z,23.48
2023-04-16T09:02:14.672Z,16.27
2023-04-16T09:03:17.061Z,15.02
2023-04-16T09:04:19.975Z,20.30
2023-04-16T09:05:25.570Z,19.83
2023-04-16T09:06:28.506Z,17.90
2023-04-16T09:07:32.371Z,15.20
2023-04-16T09:08:36.047Z,15.75
2023-04-16T09:09:39.420Z,14.93
2023-04-16T09:10:43.043Z,16.45
2023-04-16T09:11:45.577Z,15.25
2023-04-16T09:12:47.760Z,15.55
2023-04-16T09:13:49.881Z,13.57
2023-04-16T09:14:52.913Z,12.93
2023-04-16T09:15:57.117Z,13.00
2023-04-16T09:17:02.402Z,11.50
2023-04-16T09:18:04.578Z,14.65
2023-04-16T09:19:06.772Z,14.75
2023-04-16T09:20:10.941Z,18.88
2023-04-16T09:21:13.832Z,12.43
2023-04-16T09:22:17.161Z,18.38
2023-04-16T09:23:19.416Z,16.40
2023-04-16T09:24:21.929Z,16.77
2023-04-16T09:25:25.582Z,13.20
2023-04-16T09:26:27.863Z,13.38
2023-04-16T09:27:31.872Z,15.18
2023-04-16T09:28:51.370Z,15.70
2023-04-16T09:29:53.600Z,16.27
2023-04-16T09:31:10.991Z,15.00
2023-04-16T09:32:13.224Z,12.52
2023-04-16T09:33:22.304Z,15.45
2023-04-16T09:34:24.948Z,14.40
2023-04-16T09:35:27.126Z,12.10
2023-04-16T09:36:29.428Z,13.77
2023-04-16T09:37:31.628Z,12.93
2023-04-16T09:38:51.552Z,18.17
2023-04-16T09:40:01.427Z,13.38
2023-04-16T09:41:08.189Z,14.43
2023-04-16T09:42:11.209Z,14.85
2023-04-16T09:43:18.418Z,13.32
2023-04-16T09:44:20.791Z,14.27
2023-04-16T09:45:23.077Z,15.63
2023-04-16T09:46:31.685Z,14.57
2023-04-16T09:47:44.460Z,19.17
2023-04-16T09:48:47.126Z,11.98
2023-04-16T09:49:49.484Z,13.27
2023-04-16T09:50:52.175Z,13.18
2023-04-16T09:51:56.114Z,16.85
2023-04-16T09:53:02.523Z,13.02
2023-04-16T09:54:05.591Z,15.27
2023-04-16T09:55:08.046Z,15.13
2023-04-16T09:56:12.475Z,13.05
2023-04-16T09:57:18.222Z,14.25
2023-04-16T09:58:20.704Z,12.27
2023-04-16T09:59:24.092Z,14.38
2023-04-16T10:00:26.361Z,14.30
2023-04-16T10:01:30.924Z,15.38
2023-04-16T10:02:39.020Z,13.75
2023-04-16T10:03:41.788Z,13.07
2023-04-16T10:04:52.777Z,12.77
2023-04-16T10:05:55.121Z,13.25
2023-04-16T10:07:05.142Z,12.40
2023-04-16T10:08:14.235Z,13.20
2023-04-16T10:09:16.566Z,13.40
2023-04-16T10:10:19.090Z,13.13
2023-04-16T10:11:21.452Z,14.45
2023-04-16T10:12:23.622Z,12.18
2023-04-16T10:13:28.051Z,9.63
2023-04-16T10:14:30.241Z,10.50
2023-04-16T10:15:32.826Z,11.68
2023-04-16T10:16:35.361Z,13.32
2023-04-16T10:17:38.542Z,12.30
2023-04-16T10:18:43.224Z,17.75
2023-04-16T10:19:46.598Z,12.88
2023-04-16T10:20:50.366Z,13.15
2023-04-16T10:21:52.995Z,10.60
2023-04-16T10:22:56.563Z,11.35
2023-04-16T10:23:58.941Z,15.15
2023-04-16T10:25:01.482Z,14.65
2023-04-16T10:26:03.781Z,12.05
2023-04-16T10:27:06.032Z,12.32
2023-04-16T10:28:09.572Z,10.50
2023-04-16T10:29:13.436Z,12.15
2023-04-16T10:30:16.695Z,13.60
2023-04-16T10:31:19.019Z,13.02
2023-04-16T10:32:22.550Z,11.23
2023-04-16T10:33:28.621Z,14.57
2023-04-16T10:34:31.611Z,14.68
2023-04-16T10:35:33.773Z,12.25
2023-04-16T10:36:40.089Z,11.98
2023-04-16T10:37:42.558Z,11.70
2023-04-16T10:38:50.937Z,13.32
2023-04-16T10:39:53.131Z,11.63
2023-04-16T10:41:00.645Z,11.00
2023-04-16T10:42:09.027Z,13.18
2023-04-16T10:43:18.471Z,12.38
2023-04-16T10:44:20.942Z,12.65
2023-04-16T10:45:37.383Z,12.38
2023-04-16T10:46:43.609Z,12.27
2023-04-16T10:47:45.935Z,13.50
2023-04-16T10:48:50.778Z,12.50
2023-04-16T10:49:53.336Z,12.20
2023-04-16T10:50:57.555Z,14.15
2023-04-16T10:52:03.682Z,14.63
2023-04-16T10:53:27.411Z,12.73
2023-04-16T10:54:31.012Z,11.27
2023-04-16T10:55:33.798Z,11.10
2023-04-16T10:56:37.156Z,9.88
2023-04-16T10:57:39.361Z,8.65
2023-04-16T10:58:41.754Z,10.38
2023-04-16T10:59:44.733Z,10.82
2023-04-16T11:00:51.166Z,11.00
2023-04-16T11:01:58.936Z,13.00
2023-04-16T11:03:02.215Z,9.45
2023-04-16T11:04:20.071Z,10.30
2023-04-16T11:05:23.601Z,10.32
2023-04-16T11:06:27.735Z,11.20
2023-04-16T11:07:34.881Z,9.20
2023-04-16T11:08:53.339Z,9.40
2023-04-16T11:10:02.057Z,10.40
2023-04-16T11:11:05.642Z,12.02
2023-04-16T11:12:10.589Z,8.75
2023-04-16T11:13:13.078Z,7.28
2023-04-16T11:14:15.405Z,11.00
2023-04-16T11:15:21.900Z,9.57
2023-04-16T11:16:25.981Z,10.40
2023-04-16T11:17:33.683Z,10.25
2023-04-16T11:18:36.536Z,10.45
2023-04-16T11:19:44.263Z,10.43
2023-04-16T11:20:46.561Z,10.95
2023-04-16T11:21:49.308Z,11.00
2023-04-16T11:22:53.140Z,10.25
2023-04-16T11:23:56.742Z,11.48
2023-04-16T11:24:58.913Z,8.88
2023-04-16T11:26:01.092Z,12.30
2023-04-16T11:27:03.789Z,9.07
2023-04-16T11:28:05.931Z,11.38
2023-04-16T11:29:15.663Z,10.95
2023-04-16T11:30:18.992Z,13.85
2023-04-16T11:31:21.345Z,11.80
2023-04-16T11:32:23.922Z,8.75
2023-04-16T11:33:26.419Z,10.32
2023-04-16T11:34:28.801Z,8.35
2023-04-16T11:35:31.172Z,9.98
2023-04-16T11:36:44.047Z,14.38
2023-04-16T11:37:48.429Z,9.20
2023-04-16T11:38:50.724Z,12.00
2023-04-16T11:39:53.347Z,11.82
2023-04-16T11:40:55.657Z,9.07
2023-04-16T11:41:57.904Z,10.20
2023-04-16T11:43:12.646Z,11.02
2023-04-16T11:44:26.138Z,11.70
2023-04-16T11:45:28.424Z,9.75
2023-04-16T11:46:43.151Z,11.85
2023-04-16T11:47:47.525Z,12.80
2023-04-16T11:48:52.336Z,14.25
2023-04-16T11:49:54.548Z,10.70
2023-04-16T11:50:58.051Z,9.98
2023-04-16T11:52:00.616Z,11.18
2023-04-16T11:53:09.999Z,10.88
2023-04-16T11:54:22.199Z,9.70
2023-04-16T11:55:24.648Z,12.35
2023-04-16T11:56:33.049Z,9.25
2023-04-16T11:57:35.295Z,12.60
2023-04-16T11:58:37.447Z,11.77
2023-04-16T12:00:01.378Z,15.00
2023-04-16T12:01:21.020Z,12.40
2023-04-16T12:02:36.575Z,10.73
2023-04-16T12:03:43.936Z,10.50
2023-04-16T12:04:46.633Z,9.00
2023-04-16T12:05:48.901Z,9.10
2023-04-16T12:07:09.917Z,13.55
2023-04-16T12:08:12.654Z,12.07
2023-04-16T12:09:25.346Z,10.10
2023-04-16T12:10:28.222Z,10.60
2023-04-16T12:11:48.601Z,9.70
2023-04-16T12:12:50.722Z,11.15
2023-04-16T12:14:12.142Z,11.38
2023-04-16T12:15:14.278Z,10.02
2023-04-16T12:16:19.606Z,12.32
2023-04-16T12:17:21.792Z,9.20
2023-04-16T12:18:28.284Z,14.70
2023-04-16T12:19:30.435Z,9.70
2023-04-16T12:20:41.564Z,10.70
2023-04-16T12:21:45.941Z,10.50
2023-04-16T12:22:52.749Z,11.30
2023-04-16T12:23:54.946Z,12.70
2023-04-16T12:25:03.045Z,9.32
2023-04-16T12:26:10.579Z,8.93
2023-04-16T12:27:13.226Z,9.90
2023-04-16T12:28:26.410Z,12.45
2023-04-16T12:29:28.687Z,9.48
2023-04-16T12:30:31.266Z,11.57
2023-04-16T12:31:39.468Z,11.45
2023-04-16T12:32:43.155Z,9.30
2023-04-16T12:34:01.764Z,8.60
2023-04-16T12:35:05.121Z,12.45
2023-04-16T12:36:20.240Z,11.05
2023-04-16T12:37:22.849Z,12.73
2023-04-16T12:38:25.731Z,10.25
2023-04-16T12:39:27.958Z,11.95
2023-04-16T12:40:30.176Z,10.40
2023-04-16T12:41:32.346Z,12.43
2023-04-16T12:42:37.393Z,11.50
2023-04-16T12:43:39.604Z,14.15
2023-04-16T12:44:41.844Z,9.85
2023-04-16T12:45:44.070Z,10.45
2023-04-16T12:46:46.566Z,10.80
2023-04-16T12:47:50.533Z,13.35
2023-04-16T12:48:52.850Z,11.40
2023-04-16T12:49:56.857Z,10.07
2023-04-16T12:50:59.066Z,9.27
2023-04-16T12:52:02.657Z,18.50
2023-04-16T12:53:04.811Z,11.82
2023-04-16T12:54:07.589Z,10.20
2023-04-16T12:55:10.330Z,9.93
2023-04-16T12:56:12.529Z,19.15
2023-04-16T12:57:14.742Z,9.02
2023-04-16T12:58:16.881Z,8.38
2023-04-16T12:59:19.003Z,11.50
2023-04-16T13:00:21.840Z,8.27
2023-04-16T13:01:24.007Z,9.68
2023-04-16T13:02:26.360Z,10.60
2023-04-16T13:03:28.867Z,8.25
2023-04-16T13:04:31.185Z,9.75
2023-04-16T13:05:33.937Z,10.75
2023-04-16T13:06:37.741Z,10.80
2023-04-16T13:07:40.061Z,9.25
2023-04-16T13:08:44.164Z,8.68
2023-04-16T13:09:46.565Z,8.35
2023-04-16T13:10:48.719Z,8.32
2023-04-16T13:11:51.020Z,9.18
2023-04-16T13:12:53.246Z,9.30
2023-04-16T13:13:55.402Z,10.98
2023-04-16T13:14:57.530Z,9.88
2023-04-16T13:15:59.849Z,9.98
2023-04-16T13:17:02.108Z,8.13
2023-04-16T13:18:04.498Z,10.57
2023-04-16T13:19:07.242Z,8.50
2023-04-16T13:20:10.105Z,8.25
2023-04-16T13:21:12.553Z,8.50
2023-04-16T13:22:14.761Z,9.65
2023-04-16T13:23:17.308Z,9.57
2023-04-16T13:24:19.541Z,8.30
2023-04-16T13:25:21.759Z,8.77
2023-04-16T13:26:23.993Z,9.63
2023-04-16T13:27:26.230Z,10.05
2023-04-16T13:28:28.606Z,10.13
2023-04-16T13:29:30.811Z,11.05
2023-04-16T13:30:33.507Z,8.15
2023-04-16T13:31:35.881Z,10.48
2023-04-16T13:32:38.075Z,9.60
2023-04-16T13:33:40.239Z,8.23
2023-04-16T13:34:42.669Z,9.73
2023-04-16T13:35:44.862Z,12.02
2023-04-16T13:36:47.094Z,10.77
2023-04-16T13:37:49.188Z,11.20
2023-04-16T13:38:51.436Z,10.45
2023-04-16T13:39:53.554Z,11.73
2023-04-16T13:40:55.789Z,13.52
2023-04-16T13:41:57.918Z,10.15
2023-04-16T13:43:00.179Z,9.27
2023-04-16T13:44:02.461Z,12.18
2023-04-16T13:45:04.948Z,10.77
2023-04-16T13:46:07.555Z,10.27
2023-04-16T13:47:09.733Z,13.57
2023-04-16T13:48:11.939Z,9.45
2023-04-16T13:49:14.818Z,9.07
2023-04-16T13:50:17.062Z,12.30
2023-04-16T13:51:19.234Z,12.35
2023-04-16T13:52:21.485Z,8.45
2023-04-16T13:53:23.624Z,9.82
2023-04-16T13:54:25.810Z,11.18
2023-04-16T13:55:31.008Z,11.82
2023-04-16T13:56:33.188Z,10.60
2023-04-16T13:57:35.602Z,12.75
2023-04-16T13:58:38.126Z,10.48